createdAt,value
2018-12-11T00:00:07.076Z,1014.43
2018-12-11T00:01:07.081Z,1014.48
2018-12-11T00:02:07.084Z,1014.49
2018-12-11T00:03:07.080Z,1014.47
2018-12-11T00:04:07.099Z,1014.50
2018-12-11T00:05:07.090Z,1014.45
2018-12-11T00:06:07.100Z,1014.51
2018-12-11T00:07:07.115Z,1014.49
2018-12-11T00:08:07.103Z,1014.50
2018-12-11T00:09:07.092Z,1014.48
2018-12-11T00:10:07.099Z,1014.50
2018-12-11T00:11:07.101Z,1014.56
2018-12-11T00:13:07.108Z,1014.59
2018-12-11T00:14:07.108Z,1014.59
2018-12-11T00:15:07.122Z,1014.58
2018-12-11T00:16:07.111Z,1014.62
2018-12-11T00:17:07.120Z,1014.69
2018-12-11T00:18:07.130Z,1014.75
2018-12-11T00:21:07.122Z,1014.64
2018-12-11T00:22:07.120Z,1014.66
2018-12-11T00:23:07.123Z,1014.63
2018-12-11T00:24:07.122Z,1014.59
2018-12-11T00:25:07.134Z,1014.60
2018-12-11T00:26:07.135Z,1014.61
2018-12-11T00:27:07.131Z,1014.62
2018-12-11T00:28:07.138Z,1014.64
2018-12-11T00:29:07.180Z,1014.60
2018-12-11T00:30:07.135Z,1014.63
2018-12-11T00:31:07.145Z,1014.55
2018-12-11T00:32:07.152Z,1014.52
2018-12-11T00:33:07.143Z,1014.54
2018-12-11T00:34:07.137Z,1014.51
2018-12-11T00:35:07.146Z,1014.56
2018-12-11T00:36:07.152Z,1014.52
2018-12-11T00:37:07.148Z,1014.53
2018-12-11T00:38:07.150Z,1014.53
2018-12-11T00:39:07.160Z,1014.47
2018-12-11T00:40:07.163Z,1014.49
2018-12-11T00:42:07.153Z,1014.51
2018-12-11T00:43:07.161Z,1014.52
2018-12-11T00:44:07.164Z,1014.46
2018-12-11T00:45:07.164Z,1014.45
2018-12-11T00:46:07.166Z,1014.45
2018-12-11T00:47:07.175Z,1014.47
2018-12-11T00:48:07.169Z,1014.48
2018-12-11T00:49:07.170Z,1014.53
2018-12-11T00:50:07.169Z,1014.47
2018-12-11T00:51:07.173Z,1014.49
2018-12-11T00:52:07.170Z,1014.41
2018-12-11T00:53:07.177Z,1014.43
2018-12-11T00:54:07.180Z,1014.42
2018-12-11T00:55:07.186Z,1014.41
2018-12-11T00:56:07.192Z,1014.45
2018-12-11T00:57:07.185Z,1014.48
2018-12-11T00:58:07.187Z,1014.51
2018-12-11T00:59:07.187Z,1014.45
2018-12-11T01:00:07.188Z,1014.48
2018-12-11T01:01:07.201Z,1014.50
2018-12-11T01:02:07.182Z,1014.48
2018-12-11T01:03:07.189Z,1014.51
2018-12-11T01:04:07.204Z,1014.55
2018-12-11T01:05:07.192Z,1014.53
2018-12-11T01:06:07.223Z,1014.59
2018-12-11T01:07:07.204Z,1014.56
2018-12-11T01:08:07.200Z,1014.57
2018-12-11T01:09:07.207Z,1014.64
2018-12-11T01:10:07.196Z,1014.63
2018-12-11T01:11:07.207Z,1014.63
2018-12-11T01:12:07.207Z,1014.61
2018-12-11T01:13:07.218Z,1014.60
2018-12-11T01:14:07.215Z,1014.58
2018-12-11T01:15:07.215Z,1014.61
2018-12-11T01:16:07.217Z,1014.61
2018-12-11T01:17:07.215Z,1014.60
2018-12-11T01:18:07.218Z,1014.58
2018-12-11T01:19:07.220Z,1014.63
2018-12-11T01:20:07.217Z,1014.61
2018-12-11T01:21:07.222Z,1014.64
2018-12-11T01:22:07.225Z,1014.64
2018-12-11T01:23:07.231Z,1014.66
2018-12-11T01:24:07.223Z,1014.63
2018-12-11T01:25:07.228Z,1014.64
2018-12-11T01:26:07.230Z,1014.65
2018-12-11T01:27:07.231Z,1014.60
2018-12-11T01:28:07.236Z,1014.60
2018-12-11T01:29:07.238Z,1014.60
2018-12-11T01:30:07.253Z,1014.62
2018-12-11T01:31:07.244Z,1014.61
2018-12-11T01:32:07.247Z,1014.64
2018-12-11T01:33:07.241Z,1014.64
2018-12-11T01:34:07.246Z,1014.65
2018-12-11T01:35:07.247Z,1014.60
2018-12-11T01:36:07.247Z,1014.60
2018-12-11T01:37:07.244Z,1014.61
2018-12-11T01:38:07.247Z,1014.64
2018-12-11T01:39:07.264Z,1014.66
2018-12-11T01:40:07.242Z,1014.67
2018-12-11T01:41:07.257Z,1014.72
2018-12-11T01:42:07.260Z,1014.71
2018-12-11T01:43:07.251Z,1014.70
2018-12-11T01:44:07.259Z,1014.67
2018-12-11T01:45:07.260Z,1014.65
2018-12-11T01:46:07.259Z,1014.65
2018-12-11T01:47:07.260Z,1014.63
2018-12-11T01:48:07.273Z,1014.63
2018-12-11T01:49:07.266Z,1014.68
2018-12-11T01:50:07.275Z,1014.65
2018-12-11T01:51:07.272Z,1014.63
2018-12-11T01:52:07.273Z,1014.67
2018-12-11T01:53:07.315Z,1014.61
2018-12-11T01:54:07.270Z,1014.63
2018-12-11T01:55:07.268Z,1014.58
2018-12-11T01:56:07.269Z,1014.61
2018-12-11T01:57:07.283Z,1014.60
2018-12-11T01:59:07.281Z,1014.55
2018-12-11T02:00:07.283Z,1014.53
2018-12-11T02:01:07.287Z,1014.53
2018-12-11T02:02:07.281Z,1014.60
2018-12-11T02:03:07.283Z,1014.55
2018-12-11T02:04:07.288Z,1014.56
2018-12-11T02:05:07.295Z,1014.56
2018-12-11T02:06:07.289Z,1014.64
2018-12-11T02:07:07.291Z,1014.66
2018-12-11T02:08:07.296Z,1014.64
2018-12-11T02:09:07.299Z,1014.66
2018-12-11T02:10:07.299Z,1014.63
2018-12-11T02:11:07.291Z,1014.63
2018-12-11T02:12:07.298Z,1014.59
2018-12-11T02:13:07.310Z,1014.61
2018-12-11T02:14:07.310Z,1014.63
2018-12-11T02:15:07.301Z,1014.66
2018-12-11T02:17:07.309Z,1014.57
2018-12-11T02:18:07.319Z,1014.63
2018-12-11T02:19:07.315Z,1014.64
2018-12-11T02:20:07.313Z,1014.64
2018-12-11T02:21:07.311Z,1014.70
2018-12-11T02:22:07.311Z,1014.66
2018-12-11T02:23:07.315Z,1014.67
2018-12-11T02:24:07.330Z,1014.69
2018-12-11T02:25:07.320Z,1014.70
2018-12-11T02:26:07.318Z,1014.73
2018-12-11T02:27:07.323Z,1014.73
2018-12-11T02:28:07.325Z,1014.75
2018-12-11T02:29:07.325Z,1014.73
2018-12-11T02:30:07.328Z,1014.70
2018-12-11T02:31:07.325Z,1014.74
2018-12-11T02:32:07.328Z,1014.67
2018-12-11T02:33:07.325Z,1014.72
2018-12-11T02:34:07.346Z,1014.74
2018-12-11T02:35:07.325Z,1014.70
2018-12-11T02:36:07.337Z,1014.66
2018-12-11T02:37:07.344Z,1014.76
2018-12-11T02:38:07.346Z,1014.80
2018-12-11T02:39:07.344Z,1014.77
2018-12-11T02:40:07.343Z,1014.77
2018-12-11T02:41:07.350Z,1014.79
2018-12-11T02:42:07.346Z,1014.75
2018-12-11T02:43:07.362Z,1014.78
2018-12-11T02:44:07.342Z,1014.77
2018-12-11T02:45:07.351Z,1014.79
2018-12-11T02:46:07.353Z,1014.82
2018-12-11T02:47:07.364Z,1014.76
2018-12-11T02:48:07.358Z,1014.80
2018-12-11T02:49:07.357Z,1014.78
2018-12-11T02:50:07.368Z,1014.79
2018-12-11T02:51:07.359Z,1014.79
2018-12-11T02:52:07.359Z,1014.78
2018-12-11T02:53:07.363Z,1014.79
2018-12-11T02:54:07.362Z,1014.77
2018-12-11T02:55:07.364Z,1014.75
2018-12-11T02:56:07.370Z,1014.77
2018-12-11T02:57:07.373Z,1014.78
2018-12-11T02:58:07.374Z,1014.79
2018-12-11T02:59:07.365Z,1014.81
2018-12-11T03:00:07.442Z,1014.79
2018-12-11T03:01:07.371Z,1014.77
2018-12-11T03:02:07.374Z,1014.75
2018-12-11T03:03:07.374Z,1014.76
2018-12-11T03:04:07.373Z,1014.77
2018-12-11T03:05:07.378Z,1014.69
2018-12-11T03:06:07.380Z,1014.72
2018-12-11T03:07:07.384Z,1014.76
2018-12-11T03:08:07.375Z,1014.78
2018-12-11T03:09:07.380Z,1014.79
2018-12-11T03:10:07.385Z,1014.66
2018-12-11T03:11:07.382Z,1014.65
2018-12-11T03:12:07.386Z,1014.69
2018-12-11T03:13:07.388Z,1014.70
2018-12-11T03:14:07.399Z,1014.69
2018-12-11T03:15:07.391Z,1014.73
2018-12-11T03:16:07.396Z,1014.71
2018-12-11T03:17:07.396Z,1014.72
2018-12-11T03:18:07.395Z,1014.71
2018-12-11T03:19:07.397Z,1014.65
2018-12-11T03:20:07.402Z,1014.66
2018-12-11T03:21:07.389Z,1014.66
2018-12-11T03:22:07.403Z,1014.72
2018-12-11T03:23:07.406Z,1014.74
2018-12-11T03:24:07.404Z,1014.72
2018-12-11T03:25:07.406Z,1014.66
2018-12-11T03:26:07.407Z,1014.67
2018-12-11T03:27:07.407Z,1014.76
2018-12-11T03:28:07.409Z,1014.79
2018-12-11T03:29:07.406Z,1014.77
2018-12-11T03:30:07.411Z,1014.77
2018-12-11T03:31:07.411Z,1014.76
2018-12-11T03:32:07.551Z,1014.79
2018-12-11T03:33:07.427Z,1014.77
2018-12-11T03:34:07.422Z,1014.77
2018-12-11T03:35:07.424Z,1014.73
2018-12-11T03:36:07.421Z,1014.79
2018-12-11T03:37:07.428Z,1014.76
2018-12-11T03:38:07.424Z,1014.75
2018-12-11T03:39:07.426Z,1014.81
2018-12-11T03:40:07.427Z,1014.85
2018-12-11T03:41:07.434Z,1014.78
2018-12-11T03:42:07.437Z,1014.76
2018-12-11T03:43:07.429Z,1014.80
2018-12-11T03:44:07.430Z,1014.77
2018-12-11T03:45:07.432Z,1014.78
2018-12-11T03:46:07.434Z,1014.79
2018-12-11T03:47:07.439Z,1014.80
2018-12-11T03:48:07.438Z,1014.80
2018-12-11T03:49:07.444Z,1014.81
2018-12-11T03:50:07.451Z,1014.83
2018-12-11T03:51:07.453Z,1014.79
2018-12-11T03:52:07.446Z,1014.78
2018-12-11T03:53:07.445Z,1014.79
2018-12-11T03:54:07.447Z,1014.77
2018-12-11T03:55:07.454Z,1014.75
2018-12-11T03:56:07.456Z,1014.79
2018-12-11T03:57:07.449Z,1014.78
2018-12-11T03:58:07.456Z,1014.77
2018-12-11T03:59:07.449Z,1014.73
2018-12-11T04:00:07.455Z,1014.76
2018-12-11T04:01:07.452Z,1014.72
2018-12-11T04:02:07.455Z,1014.74
2018-12-11T04:03:07.461Z,1014.69
2018-12-11T04:04:07.459Z,1014.72
2018-12-11T04:05:07.464Z,1014.68
2018-12-11T04:06:07.463Z,1014.70
2018-12-11T04:07:07.467Z,1014.66
2018-12-11T04:08:07.469Z,1014.53
2018-12-11T04:09:07.475Z,1014.63
2018-12-11T04:10:07.473Z,1014.61
2018-12-11T04:11:07.472Z,1014.61
2018-12-11T04:12:07.477Z,1014.62
2018-12-11T04:13:07.477Z,1014.59
2018-12-11T04:14:07.485Z,1014.63
2018-12-11T04:15:07.477Z,1014.63
2018-12-11T04:16:07.497Z,1014.65
2018-12-11T04:17:07.787Z,1014.61
2018-12-11T04:18:07.475Z,1014.60
2018-12-11T04:19:07.479Z,1014.62
2018-12-11T04:20:07.483Z,1014.62
2018-12-11T04:21:07.482Z,1014.54
2018-12-11T04:22:07.493Z,1014.54
2018-12-11T04:23:07.505Z,1014.55
2018-12-11T04:24:07.493Z,1014.65
2018-12-11T04:25:07.511Z,1014.58
2018-12-11T04:26:07.492Z,1014.56
2018-12-11T04:27:07.499Z,1014.59
2018-12-11T04:28:07.504Z,1014.57
2018-12-11T04:29:07.500Z,1014.59
2018-12-11T04:30:07.503Z,1014.55
2018-12-11T04:31:07.504Z,1014.62
2018-12-11T04:32:07.502Z,1014.64
2018-12-11T04:33:07.517Z,1014.61
2018-12-11T04:34:07.563Z,1014.66
2018-12-11T04:35:07.497Z,1014.62
2018-12-11T04:36:07.507Z,1014.64
2018-12-11T04:37:07.499Z,1014.60
2018-12-11T04:38:07.500Z,1014.61
2018-12-11T04:39:07.514Z,1014.66
2018-12-11T04:40:07.516Z,1014.65
2018-12-11T04:41:07.532Z,1014.64
2018-12-11T04:42:07.531Z,1014.70
2018-12-11T04:43:07.532Z,1014.68
2018-12-11T04:44:07.541Z,1014.66
2018-12-11T04:45:07.525Z,1014.66
2018-12-11T04:46:07.521Z,1014.71
2018-12-11T04:47:07.530Z,1014.69
2018-12-11T04:48:07.571Z,1014.72
2018-12-11T04:49:07.529Z,1014.76
2018-12-11T04:50:07.584Z,1014.77
2018-12-11T04:51:07.520Z,1014.74
2018-12-11T04:52:07.536Z,1014.77
2018-12-11T04:53:07.530Z,1014.79
2018-12-11T04:54:07.521Z,1014.78
2018-12-11T04:55:07.525Z,1014.79
2018-12-11T04:56:07.526Z,1014.78
2018-12-11T04:57:07.534Z,1014.79
2018-12-11T04:58:07.538Z,1014.82
2018-12-11T04:59:07.541Z,1014.85
2018-12-11T05:00:07.558Z,1014.83
2018-12-11T05:01:07.552Z,1014.86
2018-12-11T05:02:07.553Z,1014.79
2018-12-11T05:03:07.552Z,1014.78
2018-12-11T05:04:07.560Z,1014.80
2018-12-11T05:05:07.545Z,1014.83
2018-12-11T05:06:07.544Z,1014.82
2018-12-11T05:07:07.553Z,1014.80
2018-12-11T05:08:07.556Z,1014.78
2018-12-11T05:09:07.565Z,1014.77
2018-12-11T05:10:07.553Z,1014.83
2018-12-11T05:11:07.552Z,1014.80
2018-12-11T05:12:07.568Z,1014.84
2018-12-11T05:13:07.550Z,1014.84
2018-12-11T05:14:07.555Z,1014.85
2018-12-11T05:15:07.556Z,1014.81
2018-12-11T05:16:07.558Z,1014.80
2018-12-11T05:17:07.559Z,1014.80
2018-12-11T05:18:07.568Z,1014.77
2018-12-11T05:19:07.562Z,1014.74
2018-12-11T05:20:07.568Z,1014.77
2018-12-11T05:21:07.575Z,1014.78
2018-12-11T05:22:07.573Z,1014.78
2018-12-11T05:23:07.575Z,1014.72
2018-12-11T05:24:07.577Z,1014.71
2018-12-11T05:26:07.581Z,1014.72
2018-12-11T05:27:07.585Z,1014.80
2018-12-11T05:28:07.585Z,1014.76
2018-12-11T05:29:07.602Z,1014.78
2018-12-11T05:30:07.586Z,1014.73
2018-12-11T05:31:07.607Z,1014.75
2018-12-11T05:32:07.587Z,1014.74
2018-12-11T05:33:07.648Z,1014.72
2018-12-11T05:34:07.595Z,1014.75
2018-12-11T05:35:07.594Z,1014.76
2018-12-11T05:36:07.594Z,1014.69
2018-12-11T05:37:07.597Z,1014.72
2018-12-11T05:38:07.596Z,1014.78
2018-12-11T05:39:07.602Z,1014.79
2018-12-11T05:40:07.606Z,1014.78
2018-12-11T05:41:07.608Z,1014.81
2018-12-11T05:42:07.613Z,1014.79
2018-12-11T05:43:07.610Z,1014.77
2018-12-11T05:44:07.616Z,1014.71
2018-12-11T05:45:07.610Z,1014.72
2018-12-11T05:46:07.612Z,1014.67
2018-12-11T05:47:07.625Z,1014.70
2018-12-11T05:48:07.614Z,1014.65
2018-12-11T05:49:07.620Z,1014.65
2018-12-11T05:50:07.618Z,1014.69
2018-12-11T05:51:07.622Z,1014.67
2018-12-11T05:52:07.619Z,1014.67
2018-12-11T05:53:07.623Z,1014.68
2018-12-11T05:54:07.621Z,1014.68
2018-12-11T05:55:07.627Z,1014.67
2018-12-11T05:56:07.632Z,1014.69
2018-12-11T05:57:07.634Z,1014.69
2018-12-11T05:58:07.631Z,1014.73
2018-12-11T05:59:07.637Z,1014.67
2018-12-11T06:00:07.639Z,1014.73
2018-12-11T06:01:07.643Z,1014.73
2018-12-11T06:02:07.642Z,1014.75
2018-12-11T06:03:07.640Z,1014.74
2018-12-11T06:04:07.645Z,1014.75
2018-12-11T06:05:07.655Z,1014.79
2018-12-11T06:06:07.653Z,1014.81
2018-12-11T06:07:07.655Z,1014.83
2018-12-11T06:08:07.651Z,1014.78
2018-12-11T06:09:07.651Z,1014.84
2018-12-11T06:10:07.676Z,1014.82
2018-12-11T06:11:07.652Z,1014.85
2018-12-11T06:12:07.655Z,1014.85
2018-12-11T06:13:07.662Z,1014.80
2018-12-11T06:14:07.659Z,1014.86
2018-12-11T06:15:07.658Z,1014.88
2018-12-11T06:16:07.658Z,1014.87
2018-12-11T06:17:07.670Z,1014.85
2018-12-11T06:18:07.663Z,1014.86
2018-12-11T06:19:07.671Z,1014.82
2018-12-11T06:20:07.676Z,1014.85
2018-12-11T06:21:07.675Z,1014.84
2018-12-11T06:22:07.672Z,1014.85
2018-12-11T06:23:07.681Z,1014.85
2018-12-11T06:24:07.679Z,1014.89
2018-12-11T06:25:07.696Z,1014.92
2018-12-11T06:26:07.691Z,1014.87
2018-12-11T06:27:07.683Z,1014.88
2018-12-11T06:28:07.679Z,1014.92
2018-12-11T06:29:07.690Z,1014.91
2018-12-11T06:30:07.690Z,1014.93
2018-12-11T06:31:07.687Z,1014.87
2018-12-11T06:32:07.701Z,1014.83
2018-12-11T06:33:07.719Z,1014.85
2018-12-11T06:34:07.695Z,1014.84
2018-12-11T06:35:07.684Z,1014.90
2018-12-11T06:36:07.692Z,1014.94
2018-12-11T06:37:07.697Z,1014.93
2018-12-11T06:38:07.693Z,1014.98
2018-12-11T06:39:07.714Z,1015.06
2018-12-11T06:40:07.704Z,1014.99
2018-12-11T06:41:07.709Z,1014.99
2018-12-11T06:42:07.713Z,1014.98
2018-12-11T06:43:07.701Z,1014.93
2018-12-11T06:44:07.723Z,1014.97
2018-12-11T06:45:07.710Z,1014.97
2018-12-11T06:46:07.704Z,1014.96
2018-12-11T06:47:07.717Z,1015.01
2018-12-11T06:48:07.712Z,1015.00
2018-12-11T06:49:07.716Z,1015.06
2018-12-11T06:50:07.717Z,1015.01
2018-12-11T06:51:07.725Z,1015.06
2018-12-11T06:52:07.721Z,1015.03
2018-12-11T06:53:07.728Z,1015.03
2018-12-11T06:54:07.722Z,1015.03
2018-12-11T06:55:07.750Z,1015.05
2018-12-11T06:56:07.732Z,1015.04
2018-12-11T06:57:07.726Z,1015.05
2018-12-11T06:58:07.735Z,1015.01
2018-12-11T06:59:07.728Z,1015.04
2018-12-11T07:00:07.745Z,1014.98
2018-12-11T07:01:07.731Z,1015.03
2018-12-11T07:02:07.742Z,1014.97
2018-12-11T07:03:07.743Z,1014.96
2018-12-11T07:04:07.749Z,1014.99
2018-12-11T07:05:07.743Z,1015.02
2018-12-11T07:06:07.746Z,1015.02
2018-12-11T07:07:07.755Z,1015.01
2018-12-11T07:08:07.747Z,1015.03
2018-12-11T07:09:07.752Z,1015.01
2018-12-11T07:10:07.749Z,1015.08
2018-12-11T07:11:07.760Z,1015.07
2018-12-11T07:12:07.753Z,1015.04
2018-12-11T07:13:07.764Z,1015.06
2018-12-11T07:14:07.759Z,1014.99
2018-12-11T07:15:07.761Z,1015.06
2018-12-11T07:16:07.763Z,1015.12
2018-12-11T07:17:07.772Z,1015.09
2018-12-11T07:18:07.759Z,1015.13
2018-12-11T07:19:07.769Z,1015.14
2018-12-11T07:20:07.769Z,1015.18
2018-12-11T07:21:07.773Z,1015.18
2018-12-11T07:22:07.783Z,1015.19
2018-12-11T07:23:07.772Z,1015.22
2018-12-11T07:24:07.773Z,1015.23
2018-12-11T07:25:07.788Z,1015.27
2018-12-11T07:26:07.781Z,1015.31
2018-12-11T07:27:07.779Z,1015.24
2018-12-11T07:28:07.786Z,1015.25
2018-12-11T07:29:07.784Z,1015.29
2018-12-11T07:31:07.787Z,1015.24
2018-12-11T07:32:07.786Z,1015.27
2018-12-11T07:33:07.791Z,1015.28
2018-12-11T07:34:07.793Z,1015.29
2018-12-11T07:35:07.787Z,1015.23
2018-12-11T07:36:07.796Z,1015.26
2018-12-11T07:37:07.794Z,1015.26
2018-12-11T07:38:07.799Z,1015.26
2018-12-11T07:39:07.797Z,1015.30
2018-12-11T07:40:07.801Z,1015.31
2018-12-11T07:41:07.805Z,1015.39
2018-12-11T07:42:07.805Z,1015.41
2018-12-11T07:43:07.806Z,1015.40
2018-12-11T07:44:07.821Z,1015.37
2018-12-11T07:45:07.812Z,1015.36
2018-12-11T07:47:07.814Z,1015.46
2018-12-11T07:48:07.806Z,1015.41
2018-12-11T07:49:07.811Z,1015.43
2018-12-11T07:50:07.815Z,1015.39
2018-12-11T07:51:07.817Z,1015.45
2018-12-11T07:52:07.817Z,1015.42
2018-12-11T07:53:07.821Z,1015.43
2018-12-11T07:54:07.821Z,1015.42
2018-12-11T07:55:07.830Z,1015.45
2018-12-11T07:56:07.834Z,1015.49
2018-12-11T07:57:07.857Z,1015.50
2018-12-11T07:58:07.822Z,1015.56
2018-12-11T07:59:07.836Z,1015.54
2018-12-11T08:00:07.833Z,1015.55
2018-12-11T08:01:07.842Z,1015.55
2018-12-11T08:02:07.837Z,1015.52
2018-12-11T08:03:07.838Z,1015.57
2018-12-11T08:04:07.844Z,1015.48
2018-12-11T08:05:07.856Z,1015.47
2018-12-11T08:06:07.842Z,1015.48
2018-12-11T08:07:07.838Z,1015.49
2018-12-11T08:08:07.848Z,1015.48
2018-12-11T08:09:07.850Z,1015.45
2018-12-11T08:10:07.849Z,1015.51
2018-12-11T08:11:07.853Z,1015.52
2018-12-11T08:12:08.413Z,1015.47
2018-12-11T08:13:07.863Z,1015.55
2018-12-11T08:14:07.864Z,1015.51
2018-12-11T08:15:07.860Z,1015.53
2018-12-11T08:16:07.859Z,1015.55
2018-12-11T08:17:07.868Z,1015.54
2018-12-11T08:18:07.864Z,1015.54
2018-12-11T08:19:07.873Z,1015.57
2018-12-11T08:20:07.875Z,1015.56
2018-12-11T08:21:07.872Z,1015.59
2018-12-11T08:22:07.875Z,1015.58
2018-12-11T08:23:07.884Z,1015.63
2018-12-11T08:24:07.885Z,1015.63
2018-12-11T08:25:07.876Z,1015.66
2018-12-11T08:26:07.883Z,1015.62
2018-12-11T08:27:07.882Z,1015.60
2018-12-11T08:28:07.894Z,1015.62
2018-12-11T08:29:07.900Z,1015.62
2018-12-11T08:30:07.880Z,1015.61
2018-12-11T08:31:07.891Z,1015.60
2018-12-11T08:32:07.897Z,1015.60
2018-12-11T08:33:07.896Z,1015.58
2018-12-11T08:34:07.906Z,1015.59
2018-12-11T08:35:07.902Z,1015.54
2018-12-11T08:36:07.957Z,1015.55
2018-12-11T08:37:07.919Z,1015.52
2018-12-11T08:38:07.926Z,1015.57
2018-12-11T08:39:07.907Z,1015.58
2018-12-11T08:40:07.916Z,1015.54
2018-12-11T08:41:07.923Z,1015.58
2018-12-11T08:42:07.905Z,1015.59
2018-12-11T08:43:07.946Z,1015.56
2018-12-11T08:44:07.923Z,1015.63
2018-12-11T08:46:07.926Z,1015.60
2018-12-11T08:47:07.928Z,1015.59
2018-12-11T08:48:07.933Z,1015.68
2018-12-11T08:49:07.942Z,1015.70
2018-12-11T08:50:07.948Z,1015.74
2018-12-11T08:51:07.938Z,1015.78
2018-12-11T08:52:07.937Z,1015.81
2018-12-11T08:53:07.942Z,1015.87
2018-12-11T08:54:07.945Z,1015.84
2018-12-11T08:55:07.958Z,1015.85
2018-12-11T08:56:07.958Z,1015.83
2018-12-11T08:57:07.995Z,1015.89
2018-12-11T08:58:07.959Z,1015.83
2018-12-11T08:59:07.963Z,1015.78
2018-12-11T09:00:07.979Z,1015.84
2018-12-11T09:01:07.967Z,1015.85
2018-12-11T09:02:07.973Z,1015.84
2018-12-11T09:03:07.974Z,1015.76
2018-12-11T09:04:07.977Z,1015.80
2018-12-11T09:05:07.971Z,1015.76
2018-12-11T09:06:07.990Z,1015.74
2018-12-11T09:07:07.987Z,1015.78
2018-12-11T09:08:07.990Z,1015.70
2018-12-11T09:09:07.997Z,1015.70
2018-12-11T09:10:07.995Z,1015.72
2018-12-11T09:11:07.995Z,1015.72
2018-12-11T09:12:08.002Z,1015.81
2018-12-11T09:13:08.012Z,1015.83
2018-12-11T09:14:08.012Z,1015.78
2018-12-11T09:15:08.002Z,1015.80
2018-12-11T09:16:08.015Z,1015.72
2018-12-11T09:17:10.193Z,1015.77
2018-12-11T09:18:08.009Z,1015.75
2018-12-11T09:19:08.016Z,1015.77
2018-12-11T09:20:08.024Z,1015.81
2018-12-11T09:21:08.026Z,1015.81
2018-12-11T09:22:08.038Z,1015.80
2018-12-11T09:23:08.037Z,1015.80
2018-12-11T09:24:08.051Z,1015.84
2018-12-11T09:25:08.039Z,1015.84
2018-12-11T09:26:08.046Z,1015.79
2018-12-11T09:27:08.054Z,1015.80
2018-12-11T09:28:10.947Z,1015.89
2018-12-11T09:29:08.064Z,1015.87
2018-12-11T09:30:08.061Z,1015.92
2018-12-11T09:31:08.058Z,1016.04
2018-12-11T09:32:08.062Z,1016.10
2018-12-11T09:33:08.071Z,1016.10
2018-12-11T09:34:08.070Z,1016.07
2018-12-11T09:35:08.080Z,1016.28
2018-12-11T09:36:08.090Z,1016.46
2018-12-11T09:37:08.080Z,1016.33
2018-12-11T09:38:08.083Z,1016.01
2018-12-11T09:39:08.103Z,1015.87
2018-12-11T09:40:08.083Z,1015.89
2018-12-11T09:41:08.091Z,1015.87
2018-12-11T09:42:08.094Z,1015.82
2018-12-11T09:43:08.097Z,1015.84
2018-12-11T09:44:08.101Z,1015.87
2018-12-11T09:45:08.107Z,1015.94
2018-12-11T09:46:08.118Z,1016.04
2018-12-11T09:47:08.124Z,1016.09
2018-12-11T09:48:08.134Z,1016.05
2018-12-11T09:49:08.160Z,1015.96
2018-12-11T09:50:08.136Z,1015.95
2018-12-11T09:51:08.150Z,1015.86
2018-12-11T09:52:08.136Z,1015.87
2018-12-11T09:53:08.171Z,1015.86
2018-12-11T09:54:08.146Z,1015.88
2018-12-11T09:55:08.151Z,1015.93
2018-12-11T09:56:08.158Z,1016.02
2018-12-11T09:57:08.157Z,1016.42
2018-12-11T09:58:08.166Z,1016.42
2018-12-11T09:59:08.172Z,1016.27
2018-12-11T10:00:08.170Z,1016.36
2018-12-11T10:01:08.176Z,1016.44
2018-12-11T10:02:08.167Z,1016.35
2018-12-11T10:03:08.187Z,1016.26
2018-12-11T10:04:08.184Z,1016.30
2018-12-11T10:05:08.194Z,1016.24
2018-12-11T10:06:08.208Z,1016.18
2018-12-11T10:07:08.186Z,1016.19
2018-12-11T10:08:08.194Z,1016.11
2018-12-11T10:09:08.192Z,1016.12
2018-12-11T10:10:08.213Z,1016.11
2018-12-11T10:11:08.202Z,1016.16
2018-12-11T10:12:08.216Z,1016.12
2018-12-11T10:13:08.210Z,1016.16
2018-12-11T10:14:08.223Z,1016.15
2018-12-11T10:15:08.233Z,1016.15
2018-12-11T10:16:08.223Z,1016.08
2018-12-11T10:17:08.240Z,1016.05
2018-12-11T10:18:08.235Z,1016.06
2018-12-11T10:19:08.244Z,1016.00
2018-12-11T10:20:08.246Z,1016.05
2018-12-11T10:21:08.248Z,1016.05
2018-12-11T10:22:08.263Z,1016.06
2018-12-11T10:23:08.259Z,1016.04
2018-12-11T10:24:08.271Z,1016.09
2018-12-11T10:25:08.264Z,1016.10
2018-12-11T10:26:08.275Z,1016.06
2018-12-11T10:27:08.278Z,1016.14
2018-12-11T10:28:08.285Z,1016.17
2018-12-11T10:29:08.293Z,1016.20
2018-12-11T10:30:08.326Z,1016.27
2018-12-11T10:31:08.298Z,1016.23
2018-12-11T10:32:08.303Z,1016.17
2018-12-11T10:33:08.297Z,1016.03
2018-12-11T10:34:08.301Z,1016.16
2018-12-11T10:35:08.310Z,1016.29
2018-12-11T10:36:08.316Z,1016.36
2018-12-11T10:37:08.326Z,1016.34
2018-12-11T10:38:08.340Z,1016.23
2018-12-11T10:39:08.335Z,1016.12
2018-12-11T10:40:08.337Z,1016.08
2018-12-11T10:41:08.354Z,1016.03
2018-12-11T10:42:08.348Z,1016.04
2018-12-11T10:43:08.361Z,1016.02
2018-12-11T10:44:08.355Z,1015.97
2018-12-11T10:45:08.369Z,1015.96
2018-12-11T10:46:08.377Z,1015.94
2018-12-11T10:47:08.375Z,1015.93
2018-12-11T10:48:08.383Z,1015.96
2018-12-11T10:49:08.387Z,1016.05
2018-12-11T10:50:08.392Z,1016.05
2018-12-11T10:51:08.409Z,1016.02
2018-12-11T10:52:08.382Z,1015.97
2018-12-11T10:53:08.395Z,1016.03
2018-12-11T10:54:08.407Z,1015.98
2018-12-11T10:55:08.412Z,1015.97
2018-12-11T10:56:08.404Z,1015.98
2018-12-11T10:57:08.417Z,1015.95
2018-12-11T10:58:08.420Z,1016.01
2018-12-11T10:59:08.429Z,1016.03
2018-12-11T11:00:08.426Z,1015.95
2018-12-11T11:01:08.436Z,1016.00
2018-12-11T11:02:08.445Z,1016.07
2018-12-11T11:03:08.446Z,1016.00
2018-12-11T11:04:08.450Z,1016.00
2018-12-11T11:05:08.460Z,1015.97
2018-12-11T11:06:08.461Z,1015.93
2018-12-11T11:07:08.473Z,1015.97
2018-12-11T11:08:08.471Z,1015.97
2018-12-11T11:09:08.466Z,1015.92
2018-12-11T11:10:08.471Z,1015.98
2018-12-11T11:11:08.484Z,1015.91
2018-12-11T11:12:08.490Z,1015.95
2018-12-11T11:13:08.526Z,1015.95
2018-12-11T11:14:08.502Z,1015.89
2018-12-11T11:15:08.546Z,1015.88
2018-12-11T11:16:08.508Z,1015.89
2018-12-11T11:17:08.530Z,1015.85
2018-12-11T11:18:08.527Z,1015.90
2018-12-11T11:19:08.530Z,1015.90
2018-12-11T11:20:08.540Z,1015.87
2018-12-11T11:21:08.560Z,1015.86
2018-12-11T11:22:08.554Z,1015.87
2018-12-11T11:23:08.573Z,1015.90
2018-12-11T11:24:08.554Z,1015.90
2018-12-11T11:25:08.542Z,1015.90
2018-12-11T11:26:08.555Z,1015.89
2018-12-11T11:27:08.555Z,1015.95
2018-12-11T11:28:08.573Z,1015.89
2018-12-11T11:29:08.568Z,1015.93
2018-12-11T11:30:08.572Z,1015.98
2018-12-11T11:31:08.601Z,1016.05
2018-12-11T11:32:08.606Z,1016.12
2018-12-11T11:33:08.596Z,1016.15
2018-12-11T11:34:08.597Z,1016.13
2018-12-11T11:35:08.600Z,1016.16
2018-12-11T11:36:08.610Z,1016.11
2018-12-11T11:37:08.636Z,1016.11
2018-12-11T11:38:08.618Z,1016.15
2018-12-11T11:39:08.631Z,1016.17
2018-12-11T11:40:08.641Z,1016.14
2018-12-11T11:41:08.652Z,1016.13
2018-12-11T11:43:08.663Z,1016.12
2018-12-11T11:44:08.670Z,1016.14
2018-12-11T11:45:08.674Z,1016.12
2018-12-11T11:46:08.700Z,1016.08
2018-12-11T11:48:08.682Z,1016.12
2018-12-11T11:49:08.686Z,1016.15
2018-12-11T11:50:08.690Z,1016.16
2018-12-11T11:51:08.702Z,1016.07
2018-12-11T11:52:08.721Z,1016.03
2018-12-11T11:53:08.703Z,1015.98
2018-12-11T11:54:08.714Z,1015.93
2018-12-11T11:56:08.726Z,1015.93
2018-12-11T11:57:08.737Z,1015.87
2018-12-11T11:58:08.737Z,1015.88
2018-12-11T11:59:08.739Z,1015.90
2018-12-11T12:00:08.750Z,1015.95
2018-12-11T12:01:08.766Z,1015.95
2018-12-11T12:02:08.771Z,1015.95
2018-12-11T12:03:08.776Z,1015.97
2018-12-11T12:04:08.774Z,1015.99
2018-12-11T12:05:08.783Z,1016.04
2018-12-11T12:06:08.786Z,1015.88
2018-12-11T12:07:08.809Z,1015.93
2018-12-11T12:08:08.828Z,1015.93
2018-12-11T12:09:08.805Z,1015.99
2018-12-11T12:10:08.810Z,1016.04
2018-12-11T12:11:08.821Z,1016.07
2018-12-11T12:12:08.823Z,1016.06
2018-12-11T12:13:08.834Z,1016.08
2018-12-11T12:14:08.842Z,1016.09
2018-12-11T12:15:08.843Z,1016.05
2018-12-11T12:16:08.851Z,1016.04
2018-12-11T12:17:08.854Z,1016.03
2018-12-11T12:18:08.871Z,1016.03